Terminal Aerodrome Forecast
Issued by NWS

Home | Current Version | Previous Version | Text Only | Print | Product List | Glossary On
Versions: 1 2 3 4 5 6 7 8 9 10 11 12 13 14 15 16 17 18 19 20 21
000
FTUS41 KPHI 281738
TAFPNE
TAF
KPNE 281738Z 2818/2918 22007KT P6SM VCSH BKN060
     FM282100 28008KT P6SM SCT250
     FM290600 04004KT P6SM SKC
     FM291500 09005KT P6SM FEW050=

USA.gov is the U.S. government's official web portal to all federal, state and local government web resources and services.